Time;durP1;ratioP1;P1;durP2;ratioP2;P2;SDS_P1;SDS_P2;PMS_P1;PMS_P2;Temp;Humidity;BMP_temperature;BMP_pressure;BME280_temperature;BME280_humidity;BME280_pressure;Samples;Min_cycle;Max_cycle;Signal;HPM_P1;HPM_P2
2021/07/27 00:01:59;;;;;;;5.40;4.55;;;15.70;99.90;;;;;;6217041;23;20031;-85
2021/07/27 00:04:27;;;;;;;6.50;4.55;;;15.60;99.90;;;;;;6244745;23;20020;-85
2021/07/27 00:06:54;;;;;;;4.75;4.22;;;15.60;99.90;;;;;;6252020;22;20482;-85
2021/07/27 00:09:22;;;;;;;5.28;3.53;;;15.60;99.90;;;;;;6218132;23;20024;-86
2021/07/27 00:11:50;;;;;;;5.88;3.95;;;15.50;99.90;;;;;;6246786;23;20020;-86
2021/07/27 00:14:17;;;;;;;3.40;3.10;;;15.60;99.90;;;;;;6203641;23;20027;-86
2021/07/27 00:16:46;;;;;;;4.38;3.13;;;15.60;99.90;;;;;;6244630;23;20024;-86
2021/07/27 00:19:13;;;;;;;7.93;4.45;;;15.60;99.90;;;;;;6249823;22;20012;-86
2021/07/27 00:21:41;;;;;;;5.38;3.05;;;15.60;99.90;;;;;;6255200;23;20477;-86
2021/07/27 00:24:10;;;;;;;4.57;3.10;;;15.60;99.90;;;;;;6247468;23;20027;-85
2021/07/27 00:26:38;;;;;;;5.80;4.03;;;15.50;99.90;;;;;;6191107;22;20020;-86
2021/07/27 00:29:05;;;;;;;3.53;2.58;;;15.50;99.90;;;;;;6192585;23;20024;-86
2021/07/27 00:31:33;;;;;;;4.15;3.63;;;15.50;99.90;;;;;;6222522;23;20051;-86
2021/07/27 00:34:01;;;;;;;4.13;3.72;;;15.50;99.90;;;;;;6221166;23;20038;-86
2021/07/27 00:36:29;;;;;;;3.80;3.50;;;15.50;99.90;;;;;;6244526;23;20027;-86
2021/07/27 00:38:57;;;;;;;5.20;3.42;;;15.50;99.90;;;;;;6252470;22;20466;-86
2021/07/27 00:41:24;;;;;;;3.80;3.33;;;15.50;99.90;;;;;;6241748;23;20035;-85
2021/07/27 00:43:52;;;;;;;3.30;3.00;;;15.40;99.90;;;;;;6217350;23;20032;-86
2021/07/27 00:46:20;;;;;;;3.42;3.13;;;15.40;99.90;;;;;;6192026;23;20020;-86
2021/07/27 00:48:48;;;;;;;4.15;3.35;;;15.40;99.90;;;;;;6215654;23;20028;-86
2021/07/27 00:51:15;;;;;;;4.45;3.17;;;15.20;99.90;;;;;;6216685;23;20765;-86
2021/07/27 00:53:43;;;;;;;43.20;11.55;;;15.20;99.90;;;;;;6192080;23;20023;-86
2021/07/27 00:56:11;;;;;;;18.85;6.18;;;15.20;99.90;;;;;;6215886;23;20448;-85
2021/07/27 00:58:39;;;;;;;3.55;3.25;;;15.10;99.90;;;;;;6253256;22;20021;-85
2021/07/27 01:01:07;;;;;;;3.88;3.13;;;15.10;99.90;;;;;;6254158;23;20020;-86
2021/07/27 01:03:34;;;;;;;3.13;2.75;;;15.00;99.90;;;;;;6222894;23;20447;-85
2021/07/27 01:06:02;;;;;;;5.75;3.38;;;15.00;99.90;;;;;;6217305;23;20458;-85
2021/07/27 01:08:31;;;;;;;14.75;7.03;;;15.00;99.90;;;;;;6218384;23;20016;-85
2021/07/27 01:10:59;;;;;;;5.32;4.03;;;15.00;99.90;;;;;;6224265;23;20012;-86
2021/07/27 01:13:26;;;;;;;7.50;3.83;;;15.00;99.90;;;;;;6253305;23;20019;-86
2021/07/27 01:15:57;;;;;;;5.25;3.60;;;15.00;99.90;;;;;;6219480;23;20463;-85
2021/07/27 01:18:28;;;;;;;3.95;2.88;;;15.00;99.90;;;;;;6253634;22;20424;-85
2021/07/27 01:37:54;;;;;;;18.10;6.97;;;14.70;99.90;;;;;;6227885;23;20019;-86
2021/07/27 01:40:24;;;;;;;18.17;4.93;;;14.80;99.90;;;;;;6218729;23;20023;-85
2021/07/27 01:42:52;;;;;;;108.20;21.15;;;14.80;99.90;;;;;;6241611;23;20339;-85
2021/07/27 01:45:20;;;;;;;32.17;8.35;;;14.70;99.90;;;;;;6219379;23;20017;-85
2021/07/27 01:47:47;;;;;;;3.83;3.45;;;14.60;99.90;;;;;;6247594;22;20024;-85
2021/07/27 01:50:15;;;;;;;6.32;4.00;;;14.50;99.90;;;;;;6244554;23;20034;-84
2021/07/27 01:52:47;;;;;;;10.23;3.42;;;14.60;99.90;;;;;;6244472;23;20025;-86
2021/07/27 01:55:16;;;;;;;4.80;3.78;;;14.60;99.90;;;;;;6248796;23;20019;-85
2021/07/27 01:57:44;;;;;;;4.88;3.65;;;14.60;99.90;;;;;;6216430;23;20024;-90
2021/07/27 02:00:13;;;;;;;4.85;4.28;;;14.60;99.90;;;;;;6244449;22;20020;-89
2021/07/27 02:02:41;;;;;;;19.58;5.25;;;14.70;99.90;;;;;;6193697;23;20023;-89
2021/07/27 02:05:10;;;;;;;5.30;3.78;;;14.70;99.90;;;;;;6168453;23;20016;-85
2021/07/27 02:07:38;;;;;;;8.52;3.63;;;14.70;99.90;;;;;;6248450;22;20351;-85
2021/07/27 02:10:09;;;;;;;6.03;4.18;;;14.70;99.90;;;;;;6254055;23;20047;-85
2021/07/27 02:12:39;;;;;;;4.80;3.28;;;14.70;99.90;;;;;;6244369;23;20020;-85
2021/07/27 02:15:07;;;;;;;4.80;3.17;;;14.70;99.90;;;;;;6250881;23;20027;-85
2021/07/27 02:17:36;;;;;;;5.13;4.15;;;14.70;99.90;;;;;;6254292;23;20035;-84
2021/07/27 02:20:05;;;;;;;7.25;4.32;;;14.70;99.90;;;;;;6246716;22;20024;-85
2021/07/27 02:22:34;;;;;;;3.28;3.05;;;14.70;99.90;;;;;;6226235;23;20016;-85
2021/07/27 02:25:03;;;;;;;3.00;2.70;;;14.70;99.90;;;;;;6227682;23;20016;-85
2021/07/27 02:27:31;;;;;;;5.03;4.53;;;14.70;99.90;;;;;;6190756;23;20028;-85
2021/07/27 02:30:00;;;;;;;3.45;3.00;;;14.70;99.90;;;;;;6254177;23;20019;-85
2021/07/27 02:32:28;;;;;;;20.75;6.30;;;14.70;99.90;;;;;;6244102;23;20031;-85
2021/07/27 02:34:56;;;;;;;9.48;3.42;;;14.70;99.90;;;;;;6215412;23;20478;-86
2021/07/27 02:37:23;;;;;;;9.88;3.95;;;14.70;99.90;;;;;;6254123;23;20027;-85
2021/07/27 02:39:51;;;;;;;8.30;3.13;;;14.70;99.90;;;;;;6247707;22;20025;-85
2021/07/27 02:42:19;;;;;;;3.90;3.38;;;14.70;99.90;;;;;;6253847;23;20008;-85
2021/07/27 02:44:47;;;;;;;3.65;3.33;;;14.80;99.90;;;;;;6243201;23;20245;-85
2021/07/27 02:47:15;;;;;;;4.82;3.75;;;14.80;99.90;;;;;;6249036;22;20024;-85
2021/07/27 02:49:43;;;;;;;6.15;3.17;;;14.80;99.90;;;;;;6227349;23;20444;-85
2021/07/27 02:52:11;;;;;;;7.95;3.88;;;14.80;99.90;;;;;;6218912;23;20062;-85
2021/07/27 02:54:39;;;;;;;7.32;3.22;;;14.80;99.90;;;;;;6251885;23;20012;-85
2021/07/27 02:57:06;;;;;;;6.90;3.63;;;14.80;99.90;;;;;;6253571;23;20031;-85
2021/07/27 02:59:34;;;;;;;4.75;3.25;;;14.80;99.90;;;;;;6166683;23;20028;-85
2021/07/27 03:02:02;;;;;;;9.02;3.80;;;14.80;99.90;;;;;;6225799;23;20019;-85
2021/07/27 03:04:30;;;;;;;5.20;4.13;;;14.70;99.90;;;;;;6215065;23;20024;-85
2021/07/27 03:06:58;;;;;;;9.70;3.70;;;14.70;99.90;;;;;;6224017;23;20340;-85
2021/07/27 03:09:29;;;;;;;4.30;2.92;;;14.60;99.90;;;;;;6226957;23;20019;-85
2021/07/27 03:11:57;;;;;;;;;;;14.50;99.90;;;;;;6245375;23;20035;-85
2021/07/27 03:14:26;;;;;;;5.47;2.92;;;14.50;99.90;;;;;;6252269;23;19919;-85
2021/07/27 03:16:57;;;;;;;3.33;2.92;;;14.50;99.90;;;;;;6251709;23;20012;-84
2021/07/27 03:19:24;;;;;;;3.53;2.60;;;14.50;99.90;;;;;;6247434;22;20024;-84
2021/07/27 03:21:52;;;;;;;5.25;2.92;;;14.50;99.90;;;;;;6254289;23;20043;-85
2021/07/27 03:24:20;;;;;;;4.45;3.65;;;14.50;99.90;;;;;;6247304;23;20039;-84
2021/07/27 03:26:47;;;;;;;3.22;2.92;;;14.40;99.90;;;;;;6251323;23;20023;-85
2021/07/27 03:29:15;;;;;;;7.70;3.13;;;14.50;99.90;;;;;;6228973;23;20020;-84
2021/07/27 03:31:43;;;;;;;3.90;2.80;;;14.50;99.90;;;;;;6222550;23;20024;-85
2021/07/27 03:34:12;;;;;;;4.78;3.42;;;14.50;99.90;;;;;;6255735;23;20015;-85
2021/07/27 03:36:41;;;;;;;6.75;3.08;;;14.40;99.90;;;;;;6218788;23;20020;-84
2021/07/27 03:39:09;;;;;;;9.52;5.85;;;14.40;99.90;;;;;;6192571;23;20016;-85
2021/07/27 03:41:42;;;;;;;3.58;2.70;;;14.40;99.90;;;;;;6253585;23;20008;-85
2021/07/27 03:44:10;;;;;;;6.13;3.72;;;14.40;99.90;;;;;;6247585;23;20032;-84
2021/07/27 03:46:43;;;;;;;6.65;3.72;;;14.40;99.90;;;;;;6253919;22;20016;-84
2021/07/27 03:49:11;;;;;;;20.73;2.88;;;14.30;99.90;;;;;;6255917;23;20067;-84
2021/07/27 03:51:39;;;;;;;4.25;2.58;;;14.30;99.90;;;;;;6250099;23;20359;-84
2021/07/27 03:54:06;;;;;;;6.55;3.10;;;14.30;99.90;;;;;;6217160;23;20347;-84
2021/07/27 03:56:34;;;;;;;4.00;2.95;;;14.20;99.90;;;;;;6244159;23;20020;-84
2021/07/27 03:59:03;;;;;;;4.07;3.63;;;14.20;99.90;;;;;;6252436;23;20019;-84
2021/07/27 04:01:31;;;;;;;4.43;3.45;;;14.20;99.90;;;;;;6192515;23;20016;-84
2021/07/27 04:04:00;;;;;;;4.18;3.78;;;14.20;99.90;;;;;;6248250;23;20031;-85
2021/07/27 04:06:27;;;;;;;6.45;2.78;;;14.30;99.90;;;;;;6227702;22;20016;-84
2021/07/27 04:08:58;;;;;;;4.80;2.45;;;14.20;99.90;;;;;;6217243;23;20035;-84
2021/07/27 04:11:26;;;;;;;4.10;2.88;;;14.20;99.90;;;;;;6250206;23;20031;-84
2021/07/27 04:13:54;;;;;;;5.05;3.55;;;14.10;99.90;;;;;;6255247;23;20016;-84
2021/07/27 04:16:21;;;;;;;3.92;3.13;;;14.20;99.90;;;;;;6219494;23;20024;-84
2021/07/27 04:18:49;;;;;;;3.30;3.00;;;14.20;99.90;;;;;;6252886;23;20031;-85
2021/07/27 04:21:17;;;;;;;4.38;3.65;;;14.20;99.90;;;;;;6254864;23;20611;-84
2021/07/27 04:23:44;;;;;;;10.60;3.72;;;14.30;99.90;;;;;;6249224;23;20459;-84
2021/07/27 04:26:12;;;;;;;11.55;3.75;;;14.30;99.90;;;;;;6217881;23;20328;-84
2021/07/27 04:28:43;;;;;;;5.15;3.03;;;14.30;99.90;;;;;;6243925;23;20024;-84
2021/07/27 04:31:11;;;;;;;2.97;2.67;;;14.30;99.90;;;;;;6224612;23;20020;-85
2021/07/27 04:33:39;;;;;;;3.42;2.55;;;14.30;99.90;;;;;;6254804;23;20013;-85
2021/07/27 04:36:09;;;;;;;2.88;2.60;;;14.30;99.90;;;;;;6247532;23;20024;-84
2021/07/27 04:38:37;;;;;;;5.68;3.17;;;14.30;99.90;;;;;;6253586;23;20384;-84
2021/07/27 04:41:05;;;;;;;3.45;2.92;;;14.30;99.90;;;;;;6255155;23;20008;-84
2021/07/27 04:43:34;;;;;;;3.80;2.50;;;14.40;99.90;;;;;;6248795;23;20024;-84
2021/07/27 04:46:04;;;;;;;8.17;4.30;;;14.50;99.90;;;;;;6217992;23;20036;-84
2021/07/27 04:48:33;;;;;;;4.07;2.67;;;14.50;99.90;;;;;;6167430;23;20250;-84
2021/07/27 04:51:01;;;;;;;5.93;3.83;;;14.60;99.90;;;;;;6223757;23;20028;-86
2021/07/27 04:53:33;;;;;;;16.02;3.78;;;14.60;99.90;;;;;;6254579;23;20023;-85
2021/07/27 04:56:01;;;;;;;3.40;2.88;;;14.60;99.90;;;;;;6245557;23;20017;-85
2021/07/27 04:58:47;;;;;;;3.17;2.95;;;14.60;99.90;;;;;;6215890;22;20020;-83
2021/07/27 05:01:15;;;;;;;3.20;2.70;;;14.80;99.90;;;;;;6254606;23;20012;-85
2021/07/27 05:03:43;;;;;;;2.75;2.35;;;14.80;99.90;;;;;;6248731;23;20031;-85
2021/07/27 05:06:11;;;;;;;3.88;2.17;;;14.90;99.90;;;;;;6253558;23;20012;-85
2021/07/27 05:08:42;;;;;;;3.70;3.28;;;15.00;99.90;;;;;;6243145;23;20090;-85
2021/07/27 05:11:10;;;;;;;4.72;2.85;;;15.10;99.90;;;;;;6215705;23;20020;-86
2021/07/27 05:13:37;;;;;;;5.75;3.55;;;15.10;99.90;;;;;;6192650;23;20524;-84
2021/07/27 05:16:13;;;;;;;2.90;2.40;;;15.20;99.90;;;;;;6244956;23;20077;-84
2021/07/27 05:18:41;;;;;;;7.00;3.65;;;15.30;99.90;;;;;;6225932;23;20012;-85
2021/07/27 05:21:09;;;;;;;3.70;3.20;;;15.40;99.90;;;;;;6191888;23;20023;-85
2021/07/27 05:23:36;;;;;;;6.53;3.55;;;15.50;99.90;;;;;;6191771;23;20030;-84
2021/07/27 05:26:05;;;;;;;5.15;4.03;;;15.50;99.90;;;;;;6227426;23;20008;-85
2021/07/27 05:28:33;;;;;;;10.75;4.50;;;15.50;99.90;;;;;;6245158;23;20570;-85
2021/07/27 05:31:04;;;;;;;9.40;3.67;;;15.60;99.90;;;;;;6198602;23;20348;-85
2021/07/27 05:33:33;;;;;;;5.68;3.03;;;15.60;99.90;;;;;;6228212;23;20012;-86
2021/07/27 05:36:01;;;;;;;10.52;3.53;;;15.60;99.90;;;;;;6246969;23;20031;-85
2021/07/27 05:38:29;;;;;;;12.30;3.72;;;15.70;99.90;;;;;;6242308;22;20016;-86
2021/07/27 05:41:00;;;;;;;5.85;3.13;;;15.80;99.90;;;;;;6217122;23;20020;-86
2021/07/27 05:43:28;;;;;;;8.05;3.33;;;15.90;99.90;;;;;;6215246;23;20043;-86
2021/07/27 05:45:57;;;;;;;5.38;4.70;;;16.00;99.90;;;;;;6253934;23;20031;-86
2021/07/27 05:48:25;;;;;;;4.80;3.05;;;16.10;99.90;;;;;;6245390;23;20343;-86
2021/07/27 05:50:52;;;;;;;3.83;2.50;;;16.30;99.90;;;;;;6224980;23;20031;-86
2021/07/27 05:53:21;;;;;;;8.77;4.93;;;16.40;99.90;;;;;;6228545;23;20027;-87
2021/07/27 05:55:49;;;;;;;5.25;3.15;;;16.50;99.90;;;;;;6220911;23;20036;-87
2021/07/27 05:58:16;;;;;;;4.13;2.50;;;16.50;99.90;;;;;;6227979;23;20074;-87
2021/07/27 06:00:44;;;;;;;4.97;2.50;;;16.60;99.90;;;;;;6165717;23;20079;-88
2021/07/27 06:03:12;;;;;;;6.60;2.90;;;16.70;99.90;;;;;;6191307;23;20012;-87
2021/07/27 06:05:43;;;;;;;5.00;4.50;;;16.80;99.90;;;;;;6216066;23;20012;-87
2021/07/27 06:08:10;;;;;;;8.65;2.83;;;17.00;99.90;;;;;;6190946;23;20027;-88
2021/07/27 06:10:38;;;;;;;4.43;2.90;;;17.10;99.90;;;;;;6166726;23;20012;-88
2021/07/27 06:13:07;;;;;;;4.15;3.10;;;17.20;99.90;;;;;;6226769;23;20019;-88
2021/07/27 06:15:35;;;;;;;3.42;2.92;;;17.30;99.90;;;;;;6190695;23;20028;-89
2021/07/27 06:18:03;;;;;;;3.28;2.70;;;17.40;99.90;;;;;;6253815;23;20415;-88
2021/07/27 06:20:31;;;;;;;6.18;4.97;;;17.30;99.90;;;;;;6244854;22;20024;-88
2021/07/27 06:22:58;;;;;;;5.60;2.80;;;17.20;99.90;;;;;;6251221;23;20020;-89
2021/07/27 06:25:26;;;;;;;6.43;5.57;;;17.20;99.90;;;;;;6241777;23;20016;-84
2021/07/27 06:27:54;;;;;;;3.88;2.88;;;17.10;99.90;;;;;;6220375;23;20653;-84
2021/07/27 06:30:22;;;;;;;4.13;3.17;;;17.10;99.90;;;;;;6252878;23;20016;-83
2021/07/27 06:32:50;;;;;;;6.18;3.95;;;17.10;99.90;;;;;;6242890;23;20035;-82
2021/07/27 06:35:21;;;;;;;6.45;3.30;;;17.00;99.90;;;;;;6243581;23;20024;-84
2021/07/27 06:38:11;;;;;;;6.45;4.38;;;17.00;99.90;;;;;;6243687;23;20035;-83
2021/07/27 06:40:39;;;;;;;4.97;3.30;;;17.00;99.90;;;;;;6243186;23;20031;-82
2021/07/27 06:43:07;;;;;;;6.45;5.57;;;17.00;99.90;;;;;;6250253;23;20020;-80
2021/07/27 06:45:35;;;;;;;5.70;3.90;;;17.10;99.90;;;;;;6243712;23;20023;-82
2021/07/27 06:48:03;;;;;;;7.93;4.57;;;17.20;99.90;;;;;;6245590;23;20024;-80
2021/07/27 06:50:30;;;;;;;5.10;4.07;;;17.50;99.90;;;;;;6225966;23;20012;-82
2021/07/27 06:53:01;;;;;;;5.22;4.70;;;17.80;99.90;;;;;;6253758;23;20024;-81
2021/07/27 06:55:29;;;;;;;5.43;4.53;;;18.00;99.90;;;;;;6221658;23;20471;-81
2021/07/27 06:57:56;;;;;;;4.82;3.90;;;18.00;99.90;;;;;;6226211;23;20016;-80
2021/07/27 07:00:24;;;;;;;5.60;4.40;;;18.20;99.90;;;;;;6244299;22;20024;-80
2021/07/27 07:02:52;;;;;;;5.38;3.65;;;18.20;99.90;;;;;;6250817;23;20023;-81
2021/07/27 07:05:19;;;;;;;5.50;4.15;;;18.20;99.90;;;;;;6253956;23;20012;-80
2021/07/27 07:07:47;;;;;;;6.97;3.63;;;18.40;99.90;;;;;;6246861;23;20024;-80
2021/07/27 07:10:15;;;;;;;10.25;3.75;;;18.50;99.90;;;;;;6252128;23;20012;-80
2021/07/27 07:12:43;;;;;;;5.57;4.32;;;18.50;99.90;;;;;;6242690;23;20338;-80
2021/07/27 07:15:12;;;;;;;8.35;4.20;;;18.70;99.90;;;;;;6249830;23;20020;-80
2021/07/27 07:17:39;;;;;;;4.57;3.83;;;18.90;99.90;;;;;;6190858;23;20463;-82
2021/07/27 07:20:08;;;;;;;4.82;4.15;;;19.10;99.90;;;;;;6244389;22;20016;-82
2021/07/27 07:22:35;;;;;;;5.45;3.97;;;19.30;99.90;;;;;;6191441;23;20016;-84
2021/07/27 07:25:04;;;;;;;6.53;3.88;;;19.10;99.90;;;;;;6254913;23;20423;-83
2021/07/27 07:27:32;;;;;;;4.38;3.33;;;19.30;99.90;;;;;;6222037;23;20028;-83
2021/07/27 07:30:00;;;;;;;4.50;3.58;;;19.50;99.90;;;;;;6254635;23;20012;-86
2021/07/27 07:32:28;;;;;;;4.07;2.97;;;19.60;99.90;;;;;;6246485;23;20352;-86
2021/07/27 07:34:56;;;;;;;4.28;3.22;;;19.80;99.90;;;;;;6252150;22;20020;-89
2021/07/27 07:37:24;;;;;;;3.90;3.60;;;19.70;99.90;;;;;;6193440;23;20466;-87
2021/07/27 07:39:52;;;;;;;4.15;3.42;;;19.80;99.90;;;;;;6169126;23;20032;-90
2021/07/27 07:42:24;;;;;;;4.80;3.70;;;20.00;99.90;;;;;;6192019;23;20031;-89
2021/07/27 07:44:51;;;;;;;4.32;3.67;;;20.20;99.90;;;;;;6213098;23;20024;-87
2021/07/27 07:47:19;;;;;;;4.15;3.80;;;20.20;99.90;;;;;;6192405;23;20012;-89
2021/07/27 07:49:47;;;;;;;8.90;4.32;;;20.10;99.90;;;;;;6256314;23;20016;-90
2021/07/27 07:52:15;;;;;;;4.60;3.28;;;20.40;99.90;;;;;;6247584;22;20455;-88
2021/07/27 07:54:43;;;;;;;4.60;2.42;;;20.40;99.90;;;;;;6255464;23;20024;-88
2021/07/27 07:57:10;;;;;;;3.65;2.78;;;20.10;99.90;;;;;;6229900;23;20015;-88
2021/07/27 07:59:38;;;;;;;10.63;3.75;;;19.90;99.90;;;;;;6250466;22;20024;-88
2021/07/27 08:02:06;;;;;;;3.65;3.33;;;19.70;99.90;;;;;;6256140;23;20012;-87
2021/07/27 08:04:34;;;;;;;6.00;3.30;;;19.70;99.90;;;;;;6246547;23;20023;-88
2021/07/27 08:07:03;;;;;;;4.35;3.20;;;19.70;99.90;;;;;;6253079;22;20447;-87
2021/07/27 08:09:30;;;;;;;4.07;3.67;;;19.80;99.90;;;;;;6220412;23;20327;-88
2021/07/27 08:12:06;;;;;;;3.97;3.13;;;19.80;99.90;;;;;;6250248;23;20024;-88
2021/07/27 08:14:34;;;;;;;4.70;3.42;;;19.90;99.90;;;;;;6256424;22;20012;-88
2021/07/27 08:17:02;;;;;;;3.63;3.22;;;19.60;99.90;;;;;;6221420;23;20027;-90
2021/07/27 08:19:31;;;;;;;3.50;3.10;;;19.80;99.90;;;;;;6250455;23;20321;-85
2021/07/27 08:21:59;;;;;;;5.05;3.33;;;20.10;99.90;;;;;;6255685;23;20016;-86
2021/07/27 08:24:27;;;;;;;6.07;4.38;;;20.00;99.90;;;;;;6244993;22;20024;-86
2021/07/27 08:26:55;;;;;;;6.32;4.10;;;19.90;99.90;;;;;;6252079;23;20020;-85
2021/07/27 08:29:22;;;;;;;3.15;2.85;;;19.80;99.90;;;;;;6256191;23;20012;-85
2021/07/27 08:31:50;;;;;;;5.50;3.53;;;19.90;99.90;;;;;;6247863;22;20028;-83
2021/07/27 08:34:18;;;;;;;4.55;3.13;;;20.10;99.90;;;;;;6255362;23;20013;-83
2021/07/27 08:36:49;;;;;;;4.03;3.13;;;20.20;99.90;;;;;;6244331;23;20020;-84
2021/07/27 08:39:17;;;;;;;7.72;4.65;;;20.40;99.90;;;;;;6250483;22;20027;-84
2021/07/27 08:41:50;;;;;;;5.65;4.50;;;20.40;99.90;;;;;;6254159;23;20027;-84
2021/07/27 08:44:19;;;;;;;4.95;3.55;;;20.40;99.90;;;;;;6249984;22;20021;-84
2021/07/27 08:46:47;;;;;;;5.00;3.97;;;20.50;99.90;;;;;;6251979;23;20012;-84
2021/07/27 08:49:15;;;;;;;3.90;3.50;;;20.60;99.90;;;;;;6228858;23;20047;-84
2021/07/27 08:51:43;;;;;;;5.28;4.15;;;20.60;99.90;;;;;;6248846;23;20024;-83
2021/07/27 08:54:13;;;;;;;6.25;4.43;;;20.80;99.90;;;;;;6246562;23;20012;-84
2021/07/27 08:56:49;;;;;;;5.85;4.15;;;21.10;99.90;;;;;;6244494;23;20019;-84
2021/07/27 08:59:21;;;;;;;5.85;4.50;;;21.20;99.90;;;;;;6250607;22;20052;-84
2021/07/27 09:01:52;;;;;;;3.55;2.97;;;21.10;99.90;;;;;;6254582;23;20012;-85
2021/07/27 09:04:30;;;;;;;9.25;4.85;;;21.10;99.90;;;;;;6218739;23;20016;-85
2021/07/27 09:07:12;;;;;;;3.70;2.97;;;21.40;99.90;;;;;;6224718;22;20465;-84
2021/07/27 09:09:43;;;;;;;4.25;3.30;;;21.50;99.90;;;;;;6244730;23;20462;-84
2021/07/27 09:12:20;;;;;;;4.28;3.22;;;21.40;99.90;;;;;;6215790;23;20455;-84
2021/07/27 09:15:05;;;;;;;3.45;2.88;;;21.40;99.90;;;;;;6241730;23;20016;-85
2021/07/27 09:17:36;;;;;;;3.90;3.17;;;21.20;99.90;;;;;;6216371;23;20012;-84
2021/07/27 09:20:05;;;;;;;2.63;2.40;;;21.20;99.90;;;;;;6230975;22;20027;-84
2021/07/27 09:22:46;;;;;;;4.78;4.32;;;21.20;99.90;;;;;;6253527;23;20247;-85
2021/07/27 09:25:23;;;;;;;12.10;4.03;;;21.40;99.90;;;;;;6254883;23;20008;-85
2021/07/27 09:28:05;;;;;;;5.30;3.80;;;21.20;99.90;;;;;;6213546;23;20031;-84
2021/07/27 09:30:45;;;;;;;;;;;20.90;99.90;;;;;;6253619;23;20008;-84
2021/07/27 09:33:16;;;;;;;5.53;4.35;;;20.80;99.90;;;;;;6254425;23;19915;-84
2021/07/27 09:35:44;;;;;;;4.20;3.13;;;20.90;99.90;;;;;;6247944;23;20317;-84
2021/07/27 09:38:18;;;;;;;6.88;2.88;;;20.80;99.90;;;;;;6217607;23;20351;-84
2021/07/27 09:40:58;;;;;;;8.23;4.18;;;20.80;99.90;;;;;;6216309;23;20471;-84
2021/07/27 09:43:46;;;;;;;3.33;2.97;;;20.70;99.90;;;;;;6244129;23;20028;-84
2021/07/27 09:46:15;;;;;;;7.13;3.53;;;21.10;99.90;;;;;;6253950;23;20012;-83
2021/07/27 09:48:45;;;;;;;5.28;3.03;;;21.30;99.90;;;;;;6217446;23;20020;-83
2021/07/27 09:51:14;;;;;;;5.72;3.15;;;21.60;99.90;;;;;;6189750;23;20027;-81
2021/07/27 09:53:52;;;;;;;3.25;2.53;;;21.70;99.90;;;;;;6252811;23;20016;-84
2021/07/27 09:56:26;;;;;;;4.75;4.25;;;21.80;99.90;;;;;;6245261;23;20028;-84
2021/07/27 09:59:20;;;;;;;4.18;3.33;;;21.80;99.90;;;;;;6250506;22;20024;-86
2021/07/27 10:03:56;;;;;;;2.95;2.75;;;22.10;99.90;;;;;;6132276;23;20437;-83
2021/07/27 10:06:47;;;;;;;3.75;2.95;;;22.10;99.90;;;;;;6241493;22;20016;-84
2021/07/27 10:20:23;;;;;;;5.90;3.90;;;22.20;99.90;;;;;;6084492;23;20462;-85
2021/07/27 10:23:48;;;;;;;4.05;2.80;;;22.30;99.90;;;;;;6202016;22;20012;-83
2021/07/27 11:31:53;;;;;;;2.65;2.45;;;22.10;99.90;;;;;;6071594;23;20010;-84
2021/07/27 11:35:16;;;;;;;2.67;2.45;;;22.00;99.90;;;;;;6072051;23;20015;-83
2021/07/27 11:40:02;;;;;;;3.13;2.38;;;21.80;99.90;;;;;;6034212;23;20037;-86
2021/07/27 12:02:08;;;;;;;2.92;2.60;;;21.60;99.90;;;;;;6134377;23;20416;-87
2021/07/27 12:05:16;;;;;;;3.72;2.42;;;21.50;99.90;;;;;;6008764;23;20355;-84
2021/07/27 12:07:49;;;;;;;3.80;2.50;;;21.50;99.90;;;;;;6108390;23;20030;-84
2021/07/27 12:10:21;;;;;;;10.43;3.05;;;21.50;99.90;;;;;;6152940;23;20029;-84
2021/07/27 12:12:50;;;;;;;2.67;2.38;;;21.40;99.90;;;;;;6145281;23;20029;-85
2021/07/27 12:15:22;;;;;;;2.83;2.50;;;21.40;99.90;;;;;;6183546;23;20524;-87
2021/07/27 12:19:44;;;;;;;3.20;2.33;;;21.30;99.90;;;;;;6192562;23;20021;-85
2021/07/27 12:23:39;;;;;;;4.25;2.88;;;21.30;99.90;;;;;;6242763;23;20035;-83
2021/07/27 12:27:15;;;;;;;3.03;2.75;;;21.30;99.90;;;;;;6171438;23;20047;-83
2021/07/27 12:30:22;;;;;;;4.70;2.63;;;21.30;99.90;;;;;;6197710;23;20032;-83
2021/07/27 12:38:46;;;;;;;2.97;2.35;;;21.50;99.90;;;;;;6120595;23;20028;-82
2021/07/27 12:51:02;;;;;;;3.55;2.55;;;21.90;99.90;;;;;;6034193;23;20502;-85
2021/07/27 12:54:09;;;;;;;3.47;3.08;;;21.80;99.90;;;;;;6121684;23;20026;-85
2021/07/27 12:57:14;;;;;;;3.58;3.20;;;21.90;99.90;;;;;;6131736;23;20045;-83
2021/07/27 13:00:40;;;;;;;2.75;2.47;;;22.00;99.90;;;;;;6176151;23;20043;-84
2021/07/27 13:03:14;;;;;;;3.28;2.95;;;22.10;99.90;;;;;;6249690;23;20027;-84
2021/07/27 13:05:41;;;;;;;5.05;2.63;;;22.20;99.90;;;;;;6227889;23;20020;-85
2021/07/27 13:08:09;;;;;;;2.72;2.25;;;22.20;99.90;;;;;;6215462;23;20024;-83
2021/07/27 13:10:37;;;;;;;3.45;2.80;;;22.30;99.90;;;;;;6252414;23;20012;-81
2021/07/27 13:13:05;;;;;;;2.75;2.55;;;22.20;99.90;;;;;;6216272;23;20047;-81
2021/07/27 13:15:33;;;;;;;3.13;2.55;;;22.30;99.90;;;;;;6221885;23;20028;-86
2021/07/27 13:18:00;;;;;;;4.93;3.97;;;22.30;99.90;;;;;;6254535;23;20027;-84
2021/07/27 13:20:28;;;;;;;3.53;3.15;;;22.40;99.90;;;;;;6245341;22;20023;-84
2021/07/27 13:22:56;;;;;;;5.07;3.03;;;22.50;99.90;;;;;;6250302;23;20024;-86
2021/07/27 13:25:24;;;;;;;4.65;3.85;;;22.60;99.90;;;;;;6253545;23;20020;-84
2021/07/27 13:27:51;;;;;;;3.92;3.53;;;22.60;99.90;;;;;;6219879;23;20028;-84
2021/07/27 13:30:19;;;;;;;3.50;2.38;;;22.60;99.90;;;;;;6253843;23;20020;-85
2021/07/27 13:32:47;;;;;;;4.70;2.85;;;22.60;99.90;;;;;;6216139;23;20459;-85
2021/07/27 13:35:15;;;;;;;4.43;2.92;;;22.70;99.90;;;;;;6249530;23;20020;-87
2021/07/27 13:37:42;;;;;;;7.13;3.92;;;22.80;99.90;;;;;;6254143;23;20012;-86
2021/07/27 13:40:11;;;;;;;4.25;3.60;;;23.10;99.90;;;;;;6219152;23;20024;-86
2021/07/27 13:42:39;;;;;;;5.22;4.13;;;23.40;99.90;;;;;;6224920;23;20012;-86
2021/07/27 13:45:07;;;;;;;4.20;3.70;;;23.30;99.90;;;;;;6216248;23;20023;-85
2021/07/27 13:47:35;;;;;;;5.57;3.80;;;23.20;99.90;;;;;;6194223;23;20032;-85
2021/07/27 13:50:03;;;;;;;4.05;3.05;;;23.00;99.90;;;;;;6215718;23;20443;-85
2021/07/27 13:52:31;;;;;;;4.20;3.28;;;22.70;99.90;;;;;;6216449;23;20028;-84
2021/07/27 13:54:59;;;;;;;4.18;3.15;;;22.70;99.90;;;;;;6190463;23;20024;-82
2021/07/27 13:57:27;;;;;;;4.10;3.00;;;22.70;99.90;;;;;;6253052;23;20012;-80
2021/07/27 13:59:55;;;;;;;3.65;3.17;;;22.60;99.90;;;;;;6244867;23;20023;-82
2021/07/27 14:02:24;;;;;;;4.25;2.58;;;22.60;99.90;;;;;;6214335;23;20451;-81
2021/07/27 14:04:52;;;;;;;5.25;3.20;;;22.60;99.90;;;;;;6226586;23;20015;-79
2021/07/27 14:07:20;;;;;;;2.97;2.75;;;22.50;99.90;;;;;;6248725;22;20028;-80
2021/07/27 14:09:48;;;;;;;5.65;3.63;;;22.50;99.90;;;;;;6252359;23;20015;-81
2021/07/27 14:12:19;;;;;;;4.53;3.38;;;22.40;99.90;;;;;;6245214;23;20020;-83
2021/07/27 14:14:54;;;;;;;4.07;3.20;;;22.40;99.90;;;;;;6250268;23;20027;-84
2021/07/27 14:17:45;;;;;;;4.63;3.42;;;22.40;99.90;;;;;;6192327;23;20328;-83
2021/07/27 14:50:57;;;;;;;4.22;3.05;;;23.10;99.90;;;;;;6250546;22;20027;-83
2021/07/27 14:53:25;;;;;;;3.00;2.70;;;23.30;99.90;;;;;;6253259;23;20012;-83
2021/07/27 14:55:55;;;;;;;3.38;3.08;;;23.20;99.90;;;;;;6246090;23;20039;-82
2021/07/27 14:58:25;;;;;;;2.45;2.25;;;23.20;99.90;;;;;;6215807;23;20344;-82
2021/07/27 15:01:48;;;;;;;3.83;2.97;;;23.50;99.90;;;;;;6215604;23;20047;-83
2021/07/27 15:04:21;;;;;;;8.15;3.63;;;23.50;99.90;;;;;;6190033;23;20036;-82
2021/07/27 15:06:54;;;;;;;4.18;2.88;;;23.80;99.90;;;;;;6163656;23;20020;-82
2021/07/27 15:10:17;;;;;;;4.15;3.22;;;23.70;99.90;;;;;;6185719;23;20012;-82
2021/07/27 15:13:28;;;;;;;3.75;2.75;;;23.50;99.90;;;;;;6190119;23;20016;-81
2021/07/27 15:51:22;;;;;;;4.00;3.20;;;24.00;99.90;;;;;;6175523;23;20048;-83
2021/07/27 15:55:22;;;;;;;9.48;3.50;;;24.10;99.90;;;;;;6159512;23;20483;-83
2021/07/27 15:58:38;;;;;;;3.95;2.53;;;24.00;99.90;;;;;;6163519;23;20028;-82
2021/07/27 16:01:06;;;;;;;4.38;3.85;;;23.80;99.90;;;;;;6184950;23;20013;-79
2021/07/27 16:03:34;;;;;;;3.58;2.78;;;23.50;99.90;;;;;;6154578;23;20017;-81
2021/07/27 16:06:03;;;;;;;5.40;3.38;;;23.50;99.90;;;;;;6155097;23;20016;-80
2021/07/27 16:08:30;;;;;;;4.00;3.60;;;23.40;99.90;;;;;;6231542;23;20024;-80
2021/07/27 16:10:58;;;;;;;4.72;4.20;;;23.00;99.90;;;;;;6190535;23;20020;-80
2021/07/27 16:13:26;;;;;;;3.65;3.30;;;22.80;99.90;;;;;;6216436;23;20036;-81
2021/07/27 16:15:53;;;;;;;4.70;2.83;;;22.70;99.90;;;;;;6246803;23;20730;-81
2021/07/27 16:18:21;;;;;;;3.80;3.45;;;22.60;99.90;;;;;;6216950;23;20016;-81
2021/07/27 16:20:49;;;;;;;4.53;4.15;;;22.60;99.90;;;;;;6214880;23;20023;-82
2021/07/27 16:23:18;;;;;;;3.78;3.40;;;22.60;99.90;;;;;;6190904;23;20035;-81
2021/07/27 16:25:46;;;;;;;3.45;3.15;;;22.70;99.90;;;;;;6254834;23;20707;-81
2021/07/27 16:28:14;;;;;;;4.90;3.95;;;23.20;99.90;;;;;;6218975;23;20021;-81
2021/07/27 16:30:41;;;;;;;4.95;3.70;;;23.50;99.90;;;;;;6252041;23;20016;-80